sensor_id;sensor_type;location;lat;lon;timestamp;P1;durP1;ratioP1;P2;durP2;ratioP2
48911;SDS011;34722;52.108;5.044;2022-11-20T00:01:05;38.15;;;17.10;;
48911;SDS011;34722;52.108;5.044;2022-11-20T00:03:32;38.65;;;18.98;;
48911;SDS011;34722;52.108;5.044;2022-11-20T00:06:01;41.58;;;19.13;;
48911;SDS011;34722;52.108;5.044;2022-11-20T00:08:31;39.40;;;19.70;;
48911;SDS011;34722;52.108;5.044;2022-11-20T00:10:57;41.80;;;18.17;;
48911;SDS011;34722;52.108;5.044;2022-11-20T00:13:34;46.63;;;19.98;;
48911;SDS011;34722;52.108;5.044;2022-11-20T00:16:00;42.00;;;19.73;;
48911;SDS011;34722;52.108;5.044;2022-11-20T00:18:28;39.80;;;18.25;;
48911;SDS011;34722;52.108;5.044;2022-11-20T00:21:00;40.22;;;17.80;;
48911;SDS011;34722;52.108;5.044;2022-11-20T00:23:27;34.00;;;13.90;;
48911;SDS011;34722;52.108;5.044;2022-11-20T00:25:53;45.15;;;19.58;;
48911;SDS011;34722;52.108;5.044;2022-11-20T00:28:19;38.35;;;18.05;;
48911;SDS011;34722;52.108;5.044;2022-11-20T00:30:45;44.72;;;18.05;;
48911;SDS011;34722;52.108;5.044;2022-11-20T00:33:10;39.00;;;18.35;;
48911;SDS011;34722;52.108;5.044;2022-11-20T00:35:36;45.45;;;20.25;;
48911;SDS011;34722;52.108;5.044;2022-11-20T00:38:02;46.33;;;19.13;;
48911;SDS011;34722;52.108;5.044;2022-11-20T00:40:27;41.05;;;18.05;;
48911;SDS011;34722;52.108;5.044;2022-11-20T00:42:53;40.03;;;18.40;;
48911;SDS011;34722;52.108;5.044;2022-11-20T00:45:18;48.38;;;19.23;;
48911;SDS011;34722;52.108;5.044;2022-11-20T00:47:44;41.35;;;17.52;;
48911;SDS011;34722;52.108;5.044;2022-11-20T00:50:10;40.78;;;19.15;;
48911;SDS011;34722;52.108;5.044;2022-11-20T00:52:35;44.17;;;19.42;;
48911;SDS011;34722;52.108;5.044;2022-11-20T00:55:01;37.65;;;17.10;;
48911;SDS011;34722;52.108;5.044;2022-11-20T00:57:26;48.85;;;19.17;;
48911;SDS011;34722;52.108;5.044;2022-11-20T00:59:52;40.47;;;18.38;;
48911;SDS011;34722;52.108;5.044;2022-11-20T01:02:18;42.97;;;19.67;;
48911;SDS011;34722;52.108;5.044;2022-11-20T01:04:43;45.83;;;18.90;;
48911;SDS011;34722;52.108;5.044;2022-11-20T01:07:09;44.97;;;19.38;;
48911;SDS011;34722;52.108;5.044;2022-11-20T01:09:35;41.28;;;17.50;;
48911;SDS011;34722;52.108;5.044;2022-11-20T01:12:00;36.80;;;18.17;;
48911;SDS011;34722;52.108;5.044;2022-11-20T01:14:26;40.72;;;17.80;;
48911;SDS011;34722;52.108;5.044;2022-11-20T01:16:52;43.08;;;18.77;;
48911;SDS011;34722;52.108;5.044;2022-11-20T01:19:18;44.50;;;19.10;;
48911;SDS011;34722;52.108;5.044;2022-11-20T01:21:47;40.38;;;18.25;;
48911;SDS011;34722;52.108;5.044;2022-11-20T01:24:15;44.38;;;18.88;;
48911;SDS011;34722;52.108;5.044;2022-11-20T01:26:43;48.20;;;19.73;;
48911;SDS011;34722;52.108;5.044;2022-11-20T01:29:12;40.35;;;18.88;;
48911;SDS011;34722;52.108;5.044;2022-11-20T01:31:40;43.72;;;19.02;;
48911;SDS011;34722;52.108;5.044;2022-11-20T01:34:07;43.80;;;19.27;;
48911;SDS011;34722;52.108;5.044;2022-11-20T01:36:41;46.28;;;19.20;;
48911;SDS011;34722;52.108;5.044;2022-11-20T01:39:16;45.65;;;19.83;;
48911;SDS011;34722;52.108;5.044;2022-11-20T01:41:46;44.00;;;19.15;;
48911;SDS011;34722;52.108;5.044;2022-11-20T01:50:18;43.95;;;18.75;;
48911;SDS011;34722;52.108;5.044;2022-11-20T01:52:58;42.85;;;19.65;;
48911;SDS011;34722;52.108;5.044;2022-11-20T01:55:34;46.22;;;18.92;;
48911;SDS011;34722;52.108;5.044;2022-11-20T01:58:04;45.72;;;19.45;;
48911;SDS011;34722;52.108;5.044;2022-11-20T02:00:31;44.58;;;19.35;;
48911;SDS011;34722;52.108;5.044;2022-11-20T02:02:57;40.83;;;20.23;;
48911;SDS011;34722;52.108;5.044;2022-11-20T02:05:36;40.45;;;18.60;;
48911;SDS011;34722;52.108;5.044;2022-11-20T02:08:10;45.08;;;20.42;;
48911;SDS011;34722;52.108;5.044;2022-11-20T02:10:36;46.60;;;19.67;;
48911;SDS011;34722;52.108;5.044;2022-11-20T02:13:02;49.72;;;20.65;;
48911;SDS011;34722;52.108;5.044;2022-11-20T02:15:47;53.20;;;21.60;;
48911;SDS011;34722;52.108;5.044;2022-11-20T02:18:14;51.25;;;20.15;;
48911;SDS011;34722;52.108;5.044;2022-11-20T02:20:43;48.92;;;21.75;;
48911;SDS011;34722;52.108;5.044;2022-11-20T02:26:01;45.28;;;19.48;;
48911;SDS011;34722;52.108;5.044;2022-11-20T02:28:29;40.30;;;18.52;;
48911;SDS011;34722;52.108;5.044;2022-11-20T02:30:55;42.35;;;19.00;;
48911;SDS011;34722;52.108;5.044;2022-11-20T02:33:21;47.67;;;21.48;;
48911;SDS011;34722;52.108;5.044;2022-11-20T02:35:47;49.47;;;20.13;;
48911;SDS011;34722;52.108;5.044;2022-11-20T02:38:13;46.25;;;19.75;;
48911;SDS011;34722;52.108;5.044;2022-11-20T02:40:40;36.28;;;17.98;;
48911;SDS011;34722;52.108;5.044;2022-11-20T02:43:06;39.90;;;18.15;;
48911;SDS011;34722;52.108;5.044;2022-11-20T02:45:32;41.03;;;18.58;;
48911;SDS011;34722;52.108;5.044;2022-11-20T02:47:58;47.78;;;20.48;;
48911;SDS011;34722;52.108;5.044;2022-11-20T02:50:24;41.70;;;19.58;;
48911;SDS011;34722;52.108;5.044;2022-11-20T02:52:53;43.25;;;18.38;;
48911;SDS011;34722;52.108;5.044;2022-11-20T02:55:21;38.15;;;18.13;;
48911;SDS011;34722;52.108;5.044;2022-11-20T02:57:47;42.20;;;18.77;;
48911;SDS011;34722;52.108;5.044;2022-11-20T03:00:13;47.67;;;19.13;;
48911;SDS011;34722;52.108;5.044;2022-11-20T03:02:42;43.72;;;19.42;;
48911;SDS011;34722;52.108;5.044;2022-11-20T03:05:07;46.45;;;19.17;;
48911;SDS011;34722;52.108;5.044;2022-11-20T03:07:33;43.17;;;18.17;;
48911;SDS011;34722;52.108;5.044;2022-11-20T03:09:59;45.85;;;20.15;;
48911;SDS011;34722;52.108;5.044;2022-11-20T03:12:25;45.95;;;18.77;;
48911;SDS011;34722;52.108;5.044;2022-11-20T03:14:50;46.00;;;18.10;;
48911;SDS011;34722;52.108;5.044;2022-11-20T03:17:18;45.13;;;18.90;;
48911;SDS011;34722;52.108;5.044;2022-11-20T03:19:44;48.75;;;20.45;;
48911;SDS011;34722;52.108;5.044;2022-11-20T03:22:10;44.28;;;19.52;;
48911;SDS011;34722;52.108;5.044;2022-11-20T03:24:35;39.33;;;18.35;;
48911;SDS011;34722;52.108;5.044;2022-11-20T03:27:01;46.65;;;20.45;;
48911;SDS011;34722;52.108;5.044;2022-11-20T03:29:27;47.88;;;20.23;;
48911;SDS011;34722;52.108;5.044;2022-11-20T03:31:56;43.38;;;19.58;;
48911;SDS011;34722;52.108;5.044;2022-11-20T03:34:21;48.03;;;20.60;;
48911;SDS011;34722;52.108;5.044;2022-11-20T03:36:48;52.72;;;21.40;;
48911;SDS011;34722;52.108;5.044;2022-11-20T03:39:14;50.22;;;22.55;;
48911;SDS011;34722;52.108;5.044;2022-11-20T03:41:40;52.45;;;21.15;;
48911;SDS011;34722;52.108;5.044;2022-11-20T03:44:08;46.83;;;20.30;;
48911;SDS011;34722;52.108;5.044;2022-11-20T03:46:35;43.30;;;20.02;;
48911;SDS011;34722;52.108;5.044;2022-11-20T03:49:00;51.00;;;21.80;;
48911;SDS011;34722;52.108;5.044;2022-11-20T03:51:35;48.45;;;20.52;;
48911;SDS011;34722;52.108;5.044;2022-11-20T03:54:04;49.97;;;21.33;;
48911;SDS011;34722;52.108;5.044;2022-11-20T03:56:32;43.75;;;19.63;;
48911;SDS011;34722;52.108;5.044;2022-11-20T03:58:59;52.47;;;21.02;;
48911;SDS011;34722;52.108;5.044;2022-11-20T04:01:26;43.72;;;20.10;;
48911;SDS011;34722;52.108;5.044;2022-11-20T04:03:54;45.63;;;20.77;;
48911;SDS011;34722;52.108;5.044;2022-11-20T04:06:22;50.60;;;21.90;;
48911;SDS011;34722;52.108;5.044;2022-11-20T04:08:50;43.33;;;19.73;;
48911;SDS011;34722;52.108;5.044;2022-11-20T04:13:47;44.40;;;20.10;;
48911;SDS011;34722;52.108;5.044;2022-11-20T04:16:15;42.58;;;18.98;;
48911;SDS011;34722;52.108;5.044;2022-11-20T04:18:41;47.17;;;21.00;;
48911;SDS011;34722;52.108;5.044;2022-11-20T04:21:08;44.90;;;19.38;;
48911;SDS011;34722;52.108;5.044;2022-11-20T04:23:34;46.65;;;19.92;;
48911;SDS011;34722;52.108;5.044;2022-11-20T04:26:01;43.60;;;19.00;;
48911;SDS011;34722;52.108;5.044;2022-11-20T04:28:28;45.83;;;19.75;;
48911;SDS011;34722;52.108;5.044;2022-11-20T04:30:54;42.83;;;18.17;;
48911;SDS011;34722;52.108;5.044;2022-11-20T04:33:26;43.20;;;19.35;;
48911;SDS011;34722;52.108;5.044;2022-11-20T04:35:51;44.10;;;18.80;;
48911;SDS011;34722;52.108;5.044;2022-11-20T04:38:17;46.47;;;18.75;;
48911;SDS011;34722;52.108;5.044;2022-11-20T04:40:42;44.35;;;20.40;;
48911;SDS011;34722;52.108;5.044;2022-11-20T04:43:08;42.65;;;18.35;;
48911;SDS011;34722;52.108;5.044;2022-11-20T04:45:34;47.53;;;20.30;;
48911;SDS011;34722;52.108;5.044;2022-11-20T04:47:59;50.78;;;21.00;;
48911;SDS011;34722;52.108;5.044;2022-11-20T04:50:25;46.28;;;20.02;;
48911;SDS011;34722;52.108;5.044;2022-11-20T04:52:51;51.42;;;19.40;;
48911;SDS011;34722;52.108;5.044;2022-11-20T04:55:17;47.55;;;19.20;;
48911;SDS011;34722;52.108;5.044;2022-11-20T04:57:42;46.55;;;19.58;;
48911;SDS011;34722;52.108;5.044;2022-11-20T05:00:08;50.60;;;21.45;;
48911;SDS011;34722;52.108;5.044;2022-11-20T05:02:34;50.42;;;21.65;;
48911;SDS011;34722;52.108;5.044;2022-11-20T05:05:00;46.65;;;19.42;;
48911;SDS011;34722;52.108;5.044;2022-11-20T05:07:25;47.88;;;20.77;;
48911;SDS011;34722;52.108;5.044;2022-11-20T05:09:51;42.47;;;19.23;;
48911;SDS011;34722;52.108;5.044;2022-11-20T05:12:17;46.55;;;19.05;;
48911;SDS011;34722;52.108;5.044;2022-11-20T05:14:43;42.10;;;18.98;;
48911;SDS011;34722;52.108;5.044;2022-11-20T05:17:11;46.72;;;19.63;;
48911;SDS011;34722;52.108;5.044;2022-11-20T05:19:37;45.20;;;19.58;;
48911;SDS011;34722;52.108;5.044;2022-11-20T05:22:03;46.03;;;19.33;;
48911;SDS011;34722;52.108;5.044;2022-11-20T05:24:29;45.22;;;19.83;;
48911;SDS011;34722;52.108;5.044;2022-11-20T05:26:55;50.97;;;19.58;;
48911;SDS011;34722;52.108;5.044;2022-11-20T05:29:20;46.22;;;20.42;;
48911;SDS011;34722;52.108;5.044;2022-11-20T05:31:46;45.25;;;19.92;;
48911;SDS011;34722;52.108;5.044;2022-11-20T05:34:12;46.88;;;20.30;;
48911;SDS011;34722;52.108;5.044;2022-11-20T05:36:37;49.80;;;20.45;;
48911;SDS011;34722;52.108;5.044;2022-11-20T05:39:03;50.53;;;20.83;;
48911;SDS011;34722;52.108;5.044;2022-11-20T05:41:29;44.38;;;19.27;;
48911;SDS011;34722;52.108;5.044;2022-11-20T05:43:55;50.03;;;20.95;;
48911;SDS011;34722;52.108;5.044;2022-11-20T05:46:22;44.25;;;19.58;;
48911;SDS011;34722;52.108;5.044;2022-11-20T05:48:48;42.63;;;19.13;;
48911;SDS011;34722;52.108;5.044;2022-11-20T05:51:15;43.85;;;19.95;;
48911;SDS011;34722;52.108;5.044;2022-11-20T05:53:44;46.58;;;20.08;;
48911;SDS011;34722;52.108;5.044;2022-11-20T05:56:14;47.70;;;20.15;;
48911;SDS011;34722;52.108;5.044;2022-11-20T05:58:42;44.15;;;19.67;;
48911;SDS011;34722;52.108;5.044;2022-11-20T06:01:10;47.53;;;21.00;;
48911;SDS011;34722;52.108;5.044;2022-11-20T06:03:44;47.33;;;19.08;;
48911;SDS011;34722;52.108;5.044;2022-11-20T06:06:15;50.42;;;21.65;;
48911;SDS011;34722;52.108;5.044;2022-11-20T06:08:42;44.63;;;19.40;;
48911;SDS011;34722;52.108;5.044;2022-11-20T06:11:09;50.85;;;20.80;;
48911;SDS011;34722;52.108;5.044;2022-11-20T06:13:37;51.60;;;22.55;;
48911;SDS011;34722;52.108;5.044;2022-11-20T06:16:13;51.33;;;21.90;;
48911;SDS011;34722;52.108;5.044;2022-11-20T06:18:40;47.08;;;20.83;;
48911;SDS011;34722;52.108;5.044;2022-11-20T06:21:07;54.30;;;22.42;;
48911;SDS011;34722;52.108;5.044;2022-11-20T06:23:35;47.78;;;21.05;;
48911;SDS011;34722;52.108;5.044;2022-11-20T06:31:18;54.53;;;23.05;;
48911;SDS011;34722;52.108;5.044;2022-11-20T06:33:47;52.40;;;22.05;;
48911;SDS011;34722;52.108;5.044;2022-11-20T06:36:13;55.58;;;23.23;;
48911;SDS011;34722;52.108;5.044;2022-11-20T06:38:40;50.90;;;21.60;;
48911;SDS011;34722;52.108;5.044;2022-11-20T06:41:08;56.10;;;22.95;;
48911;SDS011;34722;52.108;5.044;2022-11-20T06:43:36;64.10;;;25.13;;
48911;SDS011;34722;52.108;5.044;2022-11-20T06:46:02;57.08;;;24.25;;
48911;SDS011;34722;52.108;5.044;2022-11-20T06:48:28;62.45;;;26.85;;
48911;SDS011;34722;52.108;5.044;2022-11-20T06:50:55;58.88;;;24.67;;
48911;SDS011;34722;52.108;5.044;2022-11-20T06:53:23;58.88;;;23.52;;
48911;SDS011;34722;52.108;5.044;2022-11-20T06:55:49;60.80;;;24.85;;
48911;SDS011;34722;52.108;5.044;2022-11-20T06:58:16;52.47;;;23.98;;
48911;SDS011;34722;52.108;5.044;2022-11-20T07:00:43;56.83;;;24.02;;
48911;SDS011;34722;52.108;5.044;2022-11-20T07:03:09;56.40;;;23.95;;
48911;SDS011;34722;52.108;5.044;2022-11-20T07:05:36;60.35;;;24.88;;
48911;SDS011;34722;52.108;5.044;2022-11-20T07:08:03;58.97;;;24.90;;
48911;SDS011;34722;52.108;5.044;2022-11-20T07:10:29;54.95;;;24.55;;
48911;SDS011;34722;52.108;5.044;2022-11-20T07:12:55;57.10;;;25.27;;
48911;SDS011;34722;52.108;5.044;2022-11-20T07:15:22;55.45;;;23.63;;
48911;SDS011;34722;52.108;5.044;2022-11-20T07:17:49;58.95;;;25.05;;
48911;SDS011;34722;52.108;5.044;2022-11-20T07:20:15;63.03;;;25.88;;
48911;SDS011;34722;52.108;5.044;2022-11-20T07:22:40;59.17;;;24.60;;
48911;SDS011;34722;52.108;5.044;2022-11-20T07:25:07;66.18;;;26.05;;
48911;SDS011;34722;52.108;5.044;2022-11-20T07:27:33;68.88;;;28.90;;
48911;SDS011;34722;52.108;5.044;2022-11-20T07:29:59;62.65;;;26.55;;
48911;SDS011;34722;52.108;5.044;2022-11-20T07:32:25;58.78;;;27.50;;
48911;SDS011;34722;52.108;5.044;2022-11-20T07:34:51;67.97;;;29.50;;
48911;SDS011;34722;52.108;5.044;2022-11-20T07:37:17;66.32;;;29.10;;
48911;SDS011;34722;52.108;5.044;2022-11-20T07:39:43;77.47;;;33.00;;
48911;SDS011;34722;52.108;5.044;2022-11-20T07:42:09;56.85;;;27.67;;
48911;SDS011;34722;52.108;5.044;2022-11-20T07:44:35;59.47;;;27.73;;
48911;SDS011;34722;52.108;5.044;2022-11-20T07:47:01;61.70;;;26.40;;
48911;SDS011;34722;52.108;5.044;2022-11-20T07:49:27;54.58;;;25.35;;
48911;SDS011;34722;52.108;5.044;2022-11-20T07:51:52;53.13;;;23.30;;
48911;SDS011;34722;52.108;5.044;2022-11-20T07:54:22;51.40;;;25.40;;
48911;SDS011;34722;52.108;5.044;2022-11-20T07:56:48;51.00;;;23.38;;
48911;SDS011;34722;52.108;5.044;2022-11-20T07:59:14;46.42;;;22.48;;
48911;SDS011;34722;52.108;5.044;2022-11-20T08:01:40;49.92;;;23.33;;
48911;SDS011;34722;52.108;5.044;2022-11-20T08:04:06;48.03;;;22.48;;
48911;SDS011;34722;52.108;5.044;2022-11-20T08:06:32;59.78;;;25.13;;
48911;SDS011;34722;52.108;5.044;2022-11-20T08:08:58;48.78;;;23.08;;
48911;SDS011;34722;52.108;5.044;2022-11-20T08:11:24;47.10;;;23.23;;
48911;SDS011;34722;52.108;5.044;2022-11-20T08:14:08;39.80;;;19.83;;
48911;SDS011;34722;52.108;5.044;2022-11-20T08:16:36;45.25;;;20.95;;
48911;SDS011;34722;52.108;5.044;2022-11-20T08:19:06;42.17;;;20.17;;
48911;SDS011;34722;52.108;5.044;2022-11-20T08:21:33;37.03;;;18.98;;
48911;SDS011;34722;52.108;5.044;2022-11-20T08:23:59;45.75;;;21.38;;
48911;SDS011;34722;52.108;5.044;2022-11-20T08:26:24;43.15;;;19.35;;
48911;SDS011;34722;52.108;5.044;2022-11-20T08:28:57;38.15;;;20.05;;
48911;SDS011;34722;52.108;5.044;2022-11-20T08:31:23;37.93;;;19.70;;
48911;SDS011;34722;52.108;5.044;2022-11-20T08:33:50;41.50;;;20.00;;
48911;SDS011;34722;52.108;5.044;2022-11-20T08:36:17;45.45;;;20.77;;
48911;SDS011;34722;52.108;5.044;2022-11-20T08:38:47;43.65;;;20.90;;
48911;SDS011;34722;52.108;5.044;2022-11-20T08:41:13;44.20;;;21.27;;
48911;SDS011;34722;52.108;5.044;2022-11-20T08:43:52;44.42;;;21.40;;
48911;SDS011;34722;52.108;5.044;2022-11-20T08:46:23;42.78;;;20.90;;
48911;SDS011;34722;52.108;5.044;2022-11-20T08:48:50;44.45;;;20.30;;
48911;SDS011;34722;52.108;5.044;2022-11-20T08:51:17;41.10;;;19.90;;
48911;SDS011;34722;52.108;5.044;2022-11-20T08:53:43;45.88;;;20.35;;
48911;SDS011;34722;52.108;5.044;2022-11-20T08:56:09;38.38;;;19.83;;
48911;SDS011;34722;52.108;5.044;2022-11-20T08:58:35;42.60;;;20.45;;
48911;SDS011;34722;52.108;5.044;2022-11-20T09:01:01;35.53;;;18.67;;
48911;SDS011;34722;52.108;5.044;2022-11-20T09:03:27;47.40;;;22.27;;
48911;SDS011;34722;52.108;5.044;2022-11-20T09:05:57;40.67;;;19.92;;
48911;SDS011;34722;52.108;5.044;2022-11-20T09:08:24;39.58;;;21.17;;
48911;SDS011;34722;52.108;5.044;2022-11-20T09:10:53;40.80;;;21.50;;
48911;SDS011;34722;52.108;5.044;2022-11-20T09:13:20;39.58;;;20.27;;
48911;SDS011;34722;52.108;5.044;2022-11-20T09:15:47;41.72;;;20.92;;
48911;SDS011;34722;52.108;5.044;2022-11-20T09:18:21;42.20;;;20.17;;
48911;SDS011;34722;52.108;5.044;2022-11-20T09:20:47;43.80;;;20.60;;
48911;SDS011;34722;52.108;5.044;2022-11-20T09:23:13;38.83;;;19.85;;
48911;SDS011;34722;52.108;5.044;2022-11-20T09:25:39;43.33;;;22.08;;
48911;SDS011;34722;52.108;5.044;2022-11-20T09:28:05;38.58;;;19.23;;
48911;SDS011;34722;52.108;5.044;2022-11-20T09:30:30;32.58;;;18.83;;
48911;SDS011;34722;52.108;5.044;2022-11-20T09:32:56;34.72;;;19.08;;
48911;SDS011;34722;52.108;5.044;2022-11-20T09:35:22;43.45;;;21.02;;
48911;SDS011;34722;52.108;5.044;2022-11-20T09:37:47;38.80;;;19.60;;
48911;SDS011;34722;52.108;5.044;2022-11-20T09:40:24;41.00;;;21.23;;
48911;SDS011;34722;52.108;5.044;2022-11-20T09:50:48;40.30;;;19.70;;
48911;SDS011;34722;52.108;5.044;2022-11-20T09:55:51;44.92;;;22.52;;
48911;SDS011;34722;52.108;5.044;2022-11-20T09:58:25;38.47;;;20.95;;
48911;SDS011;34722;52.108;5.044;2022-11-20T10:01:09;32.53;;;18.38;;
48911;SDS011;34722;52.108;5.044;2022-11-20T10:04:22;49.88;;;21.13;;
48911;SDS011;34722;52.108;5.044;2022-11-20T10:06:44;42.35;;;20.08;;
48911;SDS011;34722;52.108;5.044;2022-11-20T10:09:21;41.67;;;20.60;;
48911;SDS011;34722;52.108;5.044;2022-11-20T10:11:51;44.25;;;21.73;;
48911;SDS011;34722;52.108;5.044;2022-11-20T10:17:26;42.78;;;20.75;;
48911;SDS011;34722;52.108;5.044;2022-11-20T10:25:48;42.60;;;22.45;;
48911;SDS011;34722;52.108;5.044;2022-11-20T10:31:27;42.65;;;21.65;;
48911;SDS011;34722;52.108;5.044;2022-11-20T10:34:03;49.58;;;23.42;;
48911;SDS011;34722;52.108;5.044;2022-11-20T10:36:42;46.65;;;22.77;;
48911;SDS011;34722;52.108;5.044;2022-11-20T10:41:43;41.67;;;22.15;;
48911;SDS011;34722;52.108;5.044;2022-11-20T10:47:11;47.35;;;22.30;;
48911;SDS011;34722;52.108;5.044;2022-11-20T10:49:43;45.53;;;22.95;;
48911;SDS011;34722;52.108;5.044;2022-11-20T10:58:10;51.17;;;24.48;;
48911;SDS011;34722;52.108;5.044;2022-11-20T11:01:05;50.75;;;24.63;;
48911;SDS011;34722;52.108;5.044;2022-11-20T11:03:38;51.53;;;25.48;;
48911;SDS011;34722;52.108;5.044;2022-11-20T11:06:08;54.70;;;24.02;;
48911;SDS011;34722;52.108;5.044;2022-11-20T11:09:02;51.38;;;26.33;;
48911;SDS011;34722;52.108;5.044;2022-11-20T11:11:34;45.25;;;24.92;;
48911;SDS011;34722;52.108;5.044;2022-11-20T11:16:32;53.30;;;26.02;;
48911;SDS011;34722;52.108;5.044;2022-11-20T11:19:05;55.78;;;26.27;;
48911;SDS011;34722;52.108;5.044;2022-11-20T11:21:31;52.25;;;24.63;;
48911;SDS011;34722;52.108;5.044;2022-11-20T11:23:59;57.88;;;28.23;;
48911;SDS011;34722;52.108;5.044;2022-11-20T11:26:26;58.65;;;27.02;;
48911;SDS011;34722;52.108;5.044;2022-11-20T11:29:03;57.15;;;28.08;;
48911;SDS011;34722;52.108;5.044;2022-11-20T11:31:30;60.10;;;29.38;;
48911;SDS011;34722;52.108;5.044;2022-11-20T11:36:30;66.88;;;31.33;;
48911;SDS011;34722;52.108;5.044;2022-11-20T11:38:58;69.57;;;32.17;;
48911;SDS011;34722;52.108;5.044;2022-11-20T11:41:25;78.10;;;33.53;;
48911;SDS011;34722;52.108;5.044;2022-11-20T11:43:58;75.80;;;36.00;;
48911;SDS011;34722;52.108;5.044;2022-11-20T11:46:53;64.82;;;29.38;;
48911;SDS011;34722;52.108;5.044;2022-11-20T11:49:21;75.05;;;31.60;;
48911;SDS011;34722;52.108;5.044;2022-11-20T11:52:42;76.13;;;33.10;;
48911;SDS011;34722;52.108;5.044;2022-11-20T12:00:20;76.00;;;33.17;;
48911;SDS011;34722;52.108;5.044;2022-11-20T12:02:49;76.85;;;33.05;;
48911;SDS011;34722;52.108;5.044;2022-11-20T12:08:02;74.20;;;32.03;;
48911;SDS011;34722;52.108;5.044;2022-11-20T12:13:19;77.50;;;32.05;;
48911;SDS011;34722;52.108;5.044;2022-11-20T12:15:58;83.57;;;34.70;;
48911;SDS011;34722;52.108;5.044;2022-11-20T12:18:25;78.88;;;33.05;;
48911;SDS011;34722;52.108;5.044;2022-11-20T12:23:53;82.95;;;34.05;;
48911;SDS011;34722;52.108;5.044;2022-11-20T12:53:03;83.25;;;34.55;;
48911;SDS011;34722;52.108;5.044;2022-11-20T12:55:45;88.18;;;36.05;;
48911;SDS011;34722;52.108;5.044;2022-11-20T13:07:01;92.55;;;37.40;;
48911;SDS011;34722;52.108;5.044;2022-11-20T13:09:32;93.93;;;37.50;;
48911;SDS011;34722;52.108;5.044;2022-11-20T13:19:46;91.07;;;37.53;;
48911;SDS011;34722;52.108;5.044;2022-11-20T13:22:24;96.22;;;40.55;;
48911;SDS011;34722;52.108;5.044;2022-11-20T13:24:51;100.43;;;39.90;;
48911;SDS011;34722;52.108;5.044;2022-11-20T13:27:18;97.07;;;40.53;;
48911;SDS011;34722;52.108;5.044;2022-11-20T13:29:46;89.05;;;37.08;;
48911;SDS011;34722;52.108;5.044;2022-11-20T13:32:25;98.43;;;42.53;;
48911;SDS011;34722;52.108;5.044;2022-11-20T13:34:58;101.65;;;41.25;;
48911;SDS011;34722;52.108;5.044;2022-11-20T13:37:29;106.85;;;45.20;;
48911;SDS011;34722;52.108;5.044;2022-11-20T13:42:35;101.47;;;42.90;;
48911;SDS011;34722;52.108;5.044;2022-11-20T13:45:21;93.17;;;43.07;;
48911;SDS011;34722;52.108;5.044;2022-11-20T13:47:52;106.78;;;44.10;;
48911;SDS011;34722;52.108;5.044;2022-11-20T13:50:19;113.15;;;45.92;;
48911;SDS011;34722;52.108;5.044;2022-11-20T13:53:00;102.63;;;44.58;;
48911;SDS011;34722;52.108;5.044;2022-11-20T14:00:57;102.97;;;44.00;;
48911;SDS011;34722;52.108;5.044;2022-11-20T14:03:46;116.22;;;47.78;;
48911;SDS011;34722;52.108;5.044;2022-11-20T14:06:32;110.07;;;45.45;;
48911;SDS011;34722;52.108;5.044;2022-11-20T14:09:03;105.65;;;45.38;;
48911;SDS011;34722;52.108;5.044;2022-11-20T14:11:29;110.88;;;44.70;;
48911;SDS011;34722;52.108;5.044;2022-11-20T14:14:00;117.97;;;47.63;;
48911;SDS011;34722;52.108;5.044;2022-11-20T14:16:38;123.18;;;50.30;;
48911;SDS011;34722;52.108;5.044;2022-11-20T14:21:45;109.03;;;46.10;;
48911;SDS011;34722;52.108;5.044;2022-11-20T14:24:22;104.60;;;45.15;;
48911;SDS011;34722;52.108;5.044;2022-11-20T14:26:49;113.18;;;46.92;;
48911;SDS011;34722;52.108;5.044;2022-11-20T14:29:17;120.20;;;48.83;;
48911;SDS011;34722;52.108;5.044;2022-11-20T14:31:45;112.03;;;45.25;;
48911;SDS011;34722;52.108;5.044;2022-11-20T14:34:16;113.70;;;45.58;;
48911;SDS011;34722;52.108;5.044;2022-11-20T14:36:55;120.88;;;49.63;;
48911;SDS011;34722;52.108;5.044;2022-11-20T14:39:42;117.22;;;45.70;;
48911;SDS011;34722;52.108;5.044;2022-11-20T14:42:18;124.10;;;49.38;;
48911;SDS011;34722;52.108;5.044;2022-11-20T14:44:45;123.85;;;47.67;;
48911;SDS011;34722;52.108;5.044;2022-11-20T14:47:15;112.40;;;47.70;;
48911;SDS011;34722;52.108;5.044;2022-11-20T14:50:00;124.10;;;47.95;;
48911;SDS011;34722;52.108;5.044;2022-11-20T14:52:27;124.63;;;46.25;;
48911;SDS011;34722;52.108;5.044;2022-11-20T14:54:54;128.00;;;48.75;;
48911;SDS011;34722;52.108;5.044;2022-11-20T14:57:25;129.95;;;47.92;;
48911;SDS011;34722;52.108;5.044;2022-11-20T14:59:51;109.78;;;47.33;;
48911;SDS011;34722;52.108;5.044;2022-11-20T15:02:29;127.93;;;49.53;;
48911;SDS011;34722;52.108;5.044;2022-11-20T15:04:59;121.28;;;47.70;;
48911;SDS011;34722;52.108;5.044;2022-11-20T15:07:32;118.78;;;48.08;;
48911;SDS011;34722;52.108;5.044;2022-11-20T15:10:00;121.00;;;45.72;;
48911;SDS011;34722;52.108;5.044;2022-11-20T15:12:33;119.70;;;47.63;;
48911;SDS011;34722;52.108;5.044;2022-11-20T15:15:02;111.68;;;45.58;;
48911;SDS011;34722;52.108;5.044;2022-11-20T15:17:30;113.95;;;44.42;;
48911;SDS011;34722;52.108;5.044;2022-11-20T15:19:57;123.22;;;44.38;;
48911;SDS011;34722;52.108;5.044;2022-11-20T15:22:24;125.13;;;46.70;;
48911;SDS011;34722;52.108;5.044;2022-11-20T15:24:50;116.45;;;45.15;;
48911;SDS011;34722;52.108;5.044;2022-11-20T15:27:15;123.75;;;46.88;;
48911;SDS011;34722;52.108;5.044;2022-11-20T15:29:41;118.00;;;44.67;;
48911;SDS011;34722;52.108;5.044;2022-11-20T15:32:08;120.15;;;47.88;;
48911;SDS011;34722;52.108;5.044;2022-11-20T15:34:34;123.43;;;47.53;;
48911;SDS011;34722;52.108;5.044;2022-11-20T15:36:59;119.00;;;46.83;;
48911;SDS011;34722;52.108;5.044;2022-11-20T15:39:25;120.13;;;47.25;;
48911;SDS011;34722;52.108;5.044;2022-11-20T15:41:51;123.18;;;45.58;;
48911;SDS011;34722;52.108;5.044;2022-11-20T15:44:17;116.90;;;45.95;;
48911;SDS011;34722;52.108;5.044;2022-11-20T15:46:42;120.57;;;47.30;;
48911;SDS011;34722;52.108;5.044;2022-11-20T15:49:13;122.82;;;45.65;;
48911;SDS011;34722;52.108;5.044;2022-11-20T15:51:43;132.80;;;47.13;;
48911;SDS011;34722;52.108;5.044;2022-11-20T15:54:12;111.22;;;42.97;;
48911;SDS011;34722;52.108;5.044;2022-11-20T15:56:39;116.40;;;45.33;;
48911;SDS011;34722;52.108;5.044;2022-11-20T15:59:05;127.82;;;48.70;;
48911;SDS011;34722;52.108;5.044;2022-11-20T16:01:34;122.05;;;46.10;;
48911;SDS011;34722;52.108;5.044;2022-11-20T16:04:00;129.70;;;46.55;;
48911;SDS011;34722;52.108;5.044;2022-11-20T16:06:26;104.10;;;43.53;;
48911;SDS011;34722;52.108;5.044;2022-11-20T16:08:52;117.32;;;46.75;;
48911;SDS011;34722;52.108;5.044;2022-11-20T16:11:18;132.48;;;47.30;;
48911;SDS011;34722;52.108;5.044;2022-11-20T16:13:44;115.93;;;47.00;;
48911;SDS011;34722;52.108;5.044;2022-11-20T16:16:30;126.40;;;47.40;;
48911;SDS011;34722;52.108;5.044;2022-11-20T16:19:00;129.80;;;48.47;;
48911;SDS011;34722;52.108;5.044;2022-11-20T16:21:26;124.50;;;46.20;;
48911;SDS011;34722;52.108;5.044;2022-11-20T16:23:59;125.75;;;46.80;;
48911;SDS011;34722;52.108;5.044;2022-11-20T16:26:26;121.45;;;44.28;;
48911;SDS011;34722;52.108;5.044;2022-11-20T16:28:52;106.90;;;42.63;;
48911;SDS011;34722;52.108;5.044;2022-11-20T16:31:18;116.85;;;45.80;;